x

Pensacola - 115nm Ese Of Pensacola, Fl (42039) Wave Buoy

6:50pm - Wed 23rd Jul 2014 All times are CDT. -5 hours from GMT.

  • Sig Wave height 0.7ft
  • Average Period 3s
  • Wind
    9mph, 11mph gusts
  • Sea Temp 85°f
  • Air Temp 83°f
  • Sea Pressure 1015.9mb
  • Pensacola - 115nm Ese Of Pensacola, Fl
  • Pensacola - 115nm Ese Of Pensacola, Fl

More Historic Weather Station data

Upgrade to MSW Pro to gain access to the past 30 days of data for over 8000 Wavebouys and Weather Stations around the globe.

Join Pro

Comparision Forecast

View Surf forecast
   
Wed 07/23 6:50pm 0.7ft  -  3s 9 11 mph 1015.9mb 85f 83f
5:50pm 0.7ft  -  3s 9 11 mph 1016.4mb 85f 83f
4:50pm 0.7ft  -  4s 7 9 mph 1016.9mb 85f 83f
3:50pm 0.7ft  -  4s 7 9 mph 1017.3mb 85f 83f
2:50pm 0.7ft  -  4s 7 9 mph 1017.6mb 85f 83f
1:50pm 0.7ft  -  4s 7 9 mph 1017.9mb 85f 82f
12:50pm 0.7ft  -  4s 9
mph
1018.6mb 85f 82f
11:50am 0.7ft  -  4s 7 9 mph 1018.8mb 84f 82f
10:50am 0.7ft  -  4s 7 9 mph 1018.6mb 84f 82f
9:50am 0.7ft  -  4s 4 7 mph 1018.6mb 84f 82f
8:50am 0.7ft  -  4s 4
mph
1018.3mb 83f 82f
7:50am 0.7ft  -  4s 4 7 mph 1018.3mb 83f 82f
6:50am 0.7ft  -  4s 4 7 mph 1017.9mb 83f 81f
5:50am 1ft 4s 4s 4 7 mph 1017.3mb 83f 81f
4:50am 1ft 4s 4s 7 9 mph 1016.8mb 83f 81f
3:50am 1.3ft 4s 4s 7 9 mph 1016.6mb 83f 81f
2:50am 1.3ft 4s 4s 4 7 mph 1016.6mb 83f 81f
1:50am 1.3ft 4s 4s 4 7 mph 1016.9mb 84f 81f
12:50am 1.3ft 5s 4s 2 4 mph 1017.4mb 84f 81f
Tue 07/22 11:50pm 1.3ft 5s 4s 4
mph
1017.7mb 83f 81f
10:50pm 1.6ft 5s 4s 2 4 mph 1017.9mb 83f 81f
9:50pm 1.6ft 5s 4s 2 4 mph 1018mb 83f 81f
8:50pm 1.3ft 4s 4s 4 7 mph 1017.6mb 83f 81f
7:50pm 1.3ft 4s 4s 4 7 mph 1017.5mb 84f 82f
6:50pm 1.3ft 4s 4s 7 9 mph 1017mb 84f 82f
5:50pm 1.3ft 3s 3s 7
mph
1016.5mb 84f 82f
4:50pm 1.3ft 4s 3s 11
mph
1016.4mb 84f 82f
3:50pm 1ft 3s 3s 9 11 mph 1016.3mb 84f 81f
2:50pm 1.3ft 4s 4s 7
mph
1017.2mb 84f 83f
1:50pm 1ft 4s 4s 7 9 mph 1017.9mb 84f 82f
12:50pm 1ft 4s 4s 7 9 mph 1018.1mb 84f 83f
11:50am 1.3ft 4s 4s 7 9 mph 1018.1mb 84f 83f
10:50am 1.3ft 4s 3s 7 9 mph 1017.9mb 83f 83f
9:50am 1ft 4s 4s 11
mph
1017.4mb 83f 82f
8:50am 1.3ft 5s 4s 9 11 mph 1017.7mb 83f 82f
7:50am 1.3ft 4s 4s 9 11 mph 1017.4mb 82f 82f
6:50am 1.3ft 5s 3s 9 11 mph 1017mb 82f 81f
5:50am 1.3ft 4s 3s 11
mph
1016.4mb 82f 81f
4:50am 1.3ft 5s 3s 11 13 mph 1016mb 83f 81f
3:50am 1.3ft 5s 4s 9 11 mph 1015.7mb 83f 81f
2:50am 1.3ft 4s 4s 11 13 mph 1015.4mb 83f 81f
1:50am 1.6ft 5s 4s 11 13 mph 1015.9mb 83f 81f
12:50am 1.6ft 4s 4s 7 9 mph 1016.9mb 83f 81f
Mon 07/21 11:50pm 1.6ft 4s 4s 4 7 mph 1017.1mb 83f 81f
10:50pm 1.6ft 4s 4s 7 9 mph 1017.1mb 83f 81f
9:50pm 1.6ft 4s 4s 4 7 mph 1016.9mb 83f 81f
8:50pm 1.6ft 4s 4s 2 4 mph 1016.6mb 83f 81f
7:50pm 2ft 5s 4s 7 9 mph 1016mb 83f 81f
6:50pm 2ft 5s 4s 9 13 mph 1015.9mb 83f 81f
5:50pm 2ft 5s 4s 11 13 mph 1015.9mb 83f 81f
4:50pm 2.5ft 4s 4s 11 13 mph 1016.1mb 83f 80f
3:50pm 2.5ft 4s 4s 11 13 mph 1016.6mb 83f 79f
2:50pm 2.5ft 4s 4s 18 20 mph 1017mb 83f 78f
1:50pm 2.5ft 4s 4s 22 27 mph 1017.6mb 83f 77f
12:50pm 2.5ft 5s 3s 20 25 mph 1018.8mb 83f 76f
11:50am 1.6ft 5s 4s 18 22 mph 1019.5mb 83f 76f
10:50am 1.6ft 4s 4s 11 13 mph 1019.8mb 83f 75f
9:50am 2.5ft 4s 4s 18 20 mph 1018.3mb 83f 76f
8:50am 2.5ft 3s 4s 18 22 mph 1018.6mb 83f 75f
7:50am 2.5ft 4s 4s 11 16 mph 1017.7mb 83f 77f
6:50am 2.5ft 3s 4s 7 11 mph 1017mb 83f 79f
5:50am 2.5ft 3s 3s 13 18 mph 1016.8mb 84f 83f
4:50am 2.5ft 3s 3s 16 20 mph 1015.6mb 84f 83f
3:50am 2ft 5s 3s 16 18 mph 1015.4mb 84f 83f
2:50am 2ft 5s 3s 16 18 mph 1015.1mb 84f 82f
1:50am 2ft 6s 4s 16 18 mph 1015.9mb 84f 82f
12:50am 2.5ft 5s 4s 11 13 mph 1017mb 84f 82f
Sun 07/20 11:50pm 2.5ft 5s 5s 9 11 mph 1017mb 84f 82f
10:50pm 2.5ft 6s 5s 7 9 mph 1017.1mb 84f 82f
9:50pm 2.5ft 6s 5s 4 7 mph 1016.9mb 84f 82f
8:50pm 2.5ft 6s 5s 4 7 mph 1016mb 84f 82f
7:50pm 2.5ft 6s 5s 7 9 mph 1015.7mb 84f 82f
6:50pm 3ft 5s 5s 9 11 mph 1015.6mb 84f 82f
5:50pm 3ft 6s 5s 9 11 mph 1016mb 84f 81f
4:50pm 2.5ft 5s 5s 13 16 mph 1016.6mb 84f 80f
3:50pm 3ft 6s 5s 13 16 mph 1017.1mb 84f 80f
2:50pm 3.5ft 6s 5s 13 16 mph 1017.9mb 84f 79f
1:50pm 3.5ft 6s 5s 16 18 mph 1018.3mb 84f 79f
12:50pm 3.5ft 6s 5s 7 9 mph 1018.9mb 84f 79f
11:50am 3.5ft 6s 4s 7 9 mph 1019.4mb 84f 78f
10:50am 4ft 4s 4s 2 4 mph 1020mb 84f 76f
9:50am 3.5ft 6s 4s 20 29 mph 1019.3mb 84f 77f
8:50am 3.5ft 4s 4s 18 22 mph 1017.7mb 84f 84f
7:50am 3.5ft 6s 4s 18 22 mph 1016.3mb 84f 84f
6:50am 3.5ft 7s 4s 18 22 mph 1015.7mb 84f 84f
5:50am 3ft 7s 4s 16 18 mph 1015.4mb 84f 84f
4:50am 3ft 7s 4s 16 18 mph 1015.2mb 84f 84f
3:50am 3ft 7s 4s 16 18 mph 1015.2mb 84f 84f
2:50am 3ft 7s 4s 13 16 mph 1015.6mb 84f 84f
1:50am 3.5ft 6s 4s 13 16 mph 1015.8mb 84f 84f
12:50am 3ft 7s 4s 16 18 mph 1016.1mb 85f 83f